Time;durP1;ratioP1;P1;durP2;ratioP2;P2;SDS_P1;SDS_P2;PMS_P1;PMS_P2;Temp;Humidity;BMP_temperature;BMP_pressure;BME280_temperature;BME280_humidity;BME280_pressure;Samples;Min_cycle;Max_cycle;Signal;HPM_P1;HPM_P2
2024/01/30 00:00:06;;;;;;;47.47;26.20;;;3.40;69.40;;;;;;4885564;29;20218;-69
2024/01/30 00:02:34;;;;;;;47.80;24.67;;;3.40;69.00;;;;;;4885445;29;20511;-69
2024/01/30 00:05:04;;;;;;;44.63;25.50;;;3.30;69.80;;;;;;4881363;29;20643;-69
2024/01/30 00:07:33;;;;;;;45.77;24.77;;;3.30;70.00;;;;;;4885011;29;20234;-69
2024/01/30 00:10:06;;;;;;;43.27;24.87;;;3.30;68.80;;;;;;4878638;29;20246;-70
2024/01/30 00:12:34;;;;;;;45.07;25.37;;;3.30;69.00;;;;;;4860624;29;20784;-70
2024/01/30 00:15:08;;;;;;;46.47;25.03;;;3.30;69.30;;;;;;4882757;29;20277;-70
2024/01/30 00:17:37;;;;;;;43.33;24.30;;;3.30;69.10;;;;;;4881743;29;20297;-69
2024/01/30 00:20:09;;;;;;;45.10;25.57;;;3.30;69.00;;;;;;4876084;29;20223;-69
2024/01/30 00:22:37;;;;;;;44.80;25.07;;;3.30;68.60;;;;;;4882306;29;20238;-69
2024/01/30 00:25:08;;;;;;;44.93;25.80;;;3.40;68.60;;;;;;4885691;29;20233;-68
2024/01/30 00:27:37;;;;;;;43.33;24.43;;;3.40;68.40;;;;;;4852077;29;20326;-68
2024/01/30 00:30:07;;;;;;;40.77;25.30;;;3.40;67.90;;;;;;4879303;29;20674;-68
2024/01/30 00:32:35;;;;;;;48.20;26.03;;;3.30;69.10;;;;;;4881375;29;20234;-68
2024/01/30 00:35:04;;;;;;;45.17;25.10;;;3.30;81.00;;;;;;4871263;29;20317;-69
2024/01/30 00:37:33;;;;;;;44.70;25.37;;;3.30;68.80;;;;;;4883026;29;20223;-69
2024/01/30 00:40:01;;;;;;;44.63;24.23;;;3.40;67.70;;;;;;4883595;29;20232;-69
2024/01/30 00:42:31;;;;;;;41.10;25.03;;;3.30;68.00;;;;;;4867635;29;20233;-69
2024/01/30 00:45:00;;;;;;;42.47;24.90;;;3.40;68.70;;;;;;4878743;29;20238;-69
2024/01/30 00:47:29;;;;;;;46.43;26.73;;;3.30;68.80;;;;;;4883735;29;20253;-69
2024/01/30 00:49:57;;;;;;;43.23;25.13;;;3.40;67.50;;;;;;4879919;29;20316;-70
2024/01/30 00:52:26;;;;;;;45.97;24.53;;;3.40;75.90;;;;;;4881513;29;20289;-71
2024/01/30 00:54:54;;;;;;;41.93;24.97;;;3.30;67.90;;;;;;4869049;29;20226;-70
2024/01/30 00:57:23;;;;;;;43.23;23.93;;;3.40;67.00;;;;;;4882960;29;20230;-70
2024/01/30 00:59:53;;;;;;;45.23;24.83;;;3.40;67.10;;;;;;4874655;29;20251;-69
2024/01/30 01:02:21;;;;;;;42.80;24.53;;;3.40;68.00;;;;;;4878502;29;20230;-69
2024/01/30 01:04:50;;;;;;;40.83;24.63;;;3.50;66.60;;;;;;4886792;29;20230;-69
2024/01/30 01:07:18;;;;;;;46.37;25.27;;;3.40;66.50;;;;;;4869029;29;20671;-69
2024/01/30 01:09:47;;;;;;;43.63;24.60;;;3.40;73.10;;;;;;4883322;29;20256;-69
2024/01/30 01:12:16;;;;;;;41.13;23.57;;;3.50;67.00;;;;;;4882001;29;20230;-69
2024/01/30 01:14:44;;;;;;;48.47;25.60;;;3.50;66.10;;;;;;4865363;29;20218;-69
2024/01/30 01:17:14;;;;;;;44.00;24.87;;;3.50;65.90;;;;;;4876098;29;20232;-68
2024/01/30 01:19:43;;;;;;;47.73;25.87;;;3.50;65.50;;;;;;4864214;29;20314;-68
2024/01/30 01:22:11;;;;;;;43.60;24.63;;;3.50;66.30;;;;;;4885312;29;20239;-69
2024/01/30 01:24:40;;;;;;;41.47;24.70;;;3.50;65.60;;;;;;4882029;29;20286;-69
2024/01/30 01:27:09;;;;;;;44.47;25.53;;;3.50;65.80;;;;;;4880877;29;20236;-70
2024/01/30 01:29:37;;;;;;;46.00;25.77;;;3.50;66.00;;;;;;4871612;29;20293;-69
2024/01/30 01:32:06;;;;;;;43.63;25.63;;;3.50;65.50;;;;;;4886438;29;20282;-68
2024/01/30 01:34:36;;;;;;;45.63;25.10;;;3.40;65.80;;;;;;4881811;29;20222;-68
2024/01/30 01:37:04;;;;;;;43.33;24.33;;;3.40;65.30;;;;;;4887677;29;20732;-68
2024/01/30 01:39:33;;;;;;;42.97;24.53;;;3.40;65.90;;;;;;4876215;29;20226;-68
2024/01/30 01:42:01;;;;;;;43.27;24.40;;;3.30;66.10;;;;;;4885221;29;20814;-69
2024/01/30 01:44:30;;;;;;;44.90;25.73;;;3.40;65.90;;;;;;4865058;29;20542;-69
2024/01/30 01:46:59;;;;;;;45.27;25.23;;;3.40;66.30;;;;;;4889065;29;20352;-69
2024/01/30 01:49:29;;;;;;;44.37;24.53;;;3.40;65.50;;;;;;4884407;29;20231;-69
2024/01/30 01:52:00;;;;;;;43.90;25.63;;;3.40;65.30;;;;;;4870165;29;20674;-69
2024/01/30 01:54:30;;;;;;;47.70;25.87;;;3.40;65.40;;;;;;4887928;29;20318;-69
2024/01/30 01:56:59;;;;;;;45.77;24.47;;;3.40;66.00;;;;;;4885717;29;20297;-69
2024/01/30 01:59:28;;;;;;;48.87;24.77;;;3.40;65.20;;;;;;4889060;29;20322;-69
2024/01/30 02:01:57;;;;;;;46.27;25.53;;;3.30;66.50;;;;;;4872183;29;20272;-69
2024/01/30 02:04:28;;;;;;;45.30;25.17;;;3.30;66.00;;;;;;4888391;29;20226;-69
2024/01/30 02:06:57;;;;;;;44.33;24.63;;;3.30;66.30;;;;;;4863336;29;20996;-69
2024/01/30 02:09:27;;;;;;;45.37;24.77;;;3.20;66.60;;;;;;4885550;29;20313;-69
2024/01/30 02:11:57;;;;;;;44.67;25.93;;;3.30;66.70;;;;;;4852679;29;20742;-70
2024/01/30 02:14:26;;;;;;;45.03;24.93;;;3.40;65.60;;;;;;4880199;29;20574;-69
2024/01/30 02:16:58;;;;;;;41.97;24.53;;;3.40;65.30;;;;;;4889417;29;20317;-70
2024/01/30 02:19:30;;;;;;;49.97;26.10;;;3.30;65.50;;;;;;4869052;29;20230;-70
2024/01/30 02:22:00;;;;;;;45.00;24.80;;;3.30;65.10;;;;;;4850964;29;20230;-69
2024/01/30 02:24:29;;;;;;;45.87;24.83;;;3.40;64.80;;;;;;4883269;29;20767;-69
2024/01/30 02:26:58;;;;;;;46.47;24.13;;;3.40;64.90;;;;;;4890398;29;20738;-70
2024/01/30 02:29:28;;;;;;;42.53;24.17;;;3.30;64.90;;;;;;4887996;29;20238;-69
2024/01/30 02:31:56;;;;;;;39.73;23.13;;;3.30;65.30;;;;;;4873342;29;20231;-69
2024/01/30 02:34:25;;;;;;;44.23;24.00;;;3.30;65.00;;;;;;4888287;29;20253;-69
2024/01/30 02:36:53;;;;;;;44.30;23.97;;;3.30;64.90;;;;;;4885106;29;20279;-69
2024/01/30 02:39:23;;;;;;;48.33;24.03;;;3.30;65.20;;;;;;4866144;29;20246;-69
2024/01/30 02:41:52;;;;;;;44.67;24.07;;;3.30;65.10;;;;;;4857195;29;20317;-70
2024/01/30 02:44:21;;;;;;;42.67;23.50;;;3.20;65.30;;;;;;4887040;29;20263;-69
2024/01/30 02:46:50;;;;;;;44.63;23.70;;;3.20;65.80;;;;;;4884676;29;20226;-69
2024/01/30 02:49:18;;;;;;;41.57;23.67;;;3.30;64.70;;;;;;4896729;29;20226;-68
2024/01/30 02:51:47;;;;;;;43.87;23.30;;;3.40;77.40;;;;;;4884580;29;20791;-68
2024/01/30 02:54:15;;;;;;;41.77;22.83;;;3.30;64.50;;;;;;4888731;29;20787;-69
2024/01/30 02:56:45;;;;;;;42.10;23.53;;;3.30;65.20;;;;;;4888023;29;20237;-70
2024/01/30 02:59:14;;;;;;;39.40;22.30;;;3.20;66.30;;;;;;4888597;29;20234;-69
2024/01/30 03:01:46;;;;;;;41.13;22.43;;;3.30;65.40;;;;;;4889787;29;20245;-69
2024/01/30 03:04:15;;;;;;;41.03;22.97;;;3.30;64.80;;;;;;4889335;29;20235;-69
2024/01/30 03:06:47;;;;;;;39.47;22.13;;;3.30;64.90;;;;;;4885429;29;20230;-68
2024/01/30 03:09:17;;;;;;;41.77;23.33;;;3.30;64.60;;;;;;4874429;29;20275;-68
2024/01/30 03:11:47;;;;;;;41.37;22.77;;;3.30;64.30;;;;;;4857888;29;20225;-68
2024/01/30 03:14:16;;;;;;;38.33;21.73;;;3.40;63.70;;;;;;4886999;29;20605;-69
2024/01/30 03:16:45;;;;;;;40.77;22.20;;;3.40;77.00;;;;;;4889014;29;20222;-69
2024/01/30 03:19:14;;;;;;;41.60;22.50;;;3.40;64.50;;;;;;4885692;29;20424;-68
2024/01/30 03:21:43;;;;;;;37.17;21.27;;;3.40;64.80;;;;;;4882281;29;20262;-68
2024/01/30 03:24:11;;;;;;;39.00;22.20;;;3.30;64.50;;;;;;4889294;29;20239;-68
2024/01/30 03:26:40;;;;;;;41.13;22.30;;;3.30;64.40;;;;;;4870659;29;20226;-68
2024/01/30 03:29:10;;;;;;;43.10;23.00;;;3.20;64.70;;;;;;4870637;29;20244;-68
2024/01/30 03:31:40;;;;;;;41.40;22.20;;;3.30;64.20;;;;;;4879983;29;20317;-68
2024/01/30 03:34:08;;;;;;;41.70;21.97;;;3.30;63.80;;;;;;4889168;29;20231;-67
2024/01/30 03:36:37;;;;;;;38.70;21.93;;;3.30;64.00;;;;;;4886411;29;20301;-68
2024/01/30 03:39:06;;;;;;;38.50;21.77;;;3.30;63.40;;;;;;4886340;29;20345;-68
2024/01/30 03:41:34;;;;;;;38.30;21.60;;;3.20;64.10;;;;;;4888345;29;20384;-67
2024/01/30 03:44:03;;;;;;;40.30;22.30;;;3.20;63.90;;;;;;4883580;29;20235;-68
2024/01/30 03:46:33;;;;;;;40.87;22.37;;;3.20;64.00;;;;;;4883646;29;20222;-68
2024/01/30 03:49:01;;;;;;;38.63;22.43;;;3.10;64.50;;;;;;4853802;29;20318;-68
2024/01/30 03:51:31;;;;;;;43.23;22.13;;;3.20;64.70;;;;;;4885825;29;20251;-68
2024/01/30 03:53:59;;;;;;;41.77;23.53;;;3.20;64.20;;;;;;4885480;29;20767;-68
2024/01/30 03:56:28;;;;;;;42.67;22.40;;;3.10;63.90;;;;;;4884738;29;20251;-68
2024/01/30 03:58:56;;;;;;;39.80;22.63;;;3.10;64.90;;;;;;4885324;29;20248;-68
2024/01/30 04:01:25;;;;;;;40.07;21.83;;;3.10;64.40;;;;;;4868537;29;20226;-68
2024/01/30 04:03:55;;;;;;;39.90;21.90;;;3.10;64.90;;;;;;4871809;29;20257;-69
2024/01/30 04:06:23;;;;;;;37.10;22.43;;;3.10;64.30;;;;;;4881101;29;20238;-69
2024/01/30 04:08:52;;;;;;;40.37;21.80;;;3.10;64.60;;;;;;4879699;29;20673;-69
2024/01/30 04:11:20;;;;;;;42.00;23.47;;;3.00;64.30;;;;;;4871682;29;20261;-69
2024/01/30 04:13:49;;;;;;;39.60;22.50;;;3.10;64.20;;;;;;4884600;29;20291;-69
2024/01/30 04:16:22;;;;;;;39.67;22.37;;;3.00;64.50;;;;;;4865388;29;20807;-70
2024/01/30 04:18:52;;;;;;;41.33;22.63;;;2.90;64.90;;;;;;4862160;29;20853;-71
2024/01/30 04:21:23;;;;;;;42.83;22.77;;;3.00;64.40;;;;;;4880102;29;20736;-69
2024/01/30 04:23:52;;;;;;;43.10;23.13;;;3.10;64.70;;;;;;4861341;29;20230;-69
2024/01/30 04:26:21;;;;;;;42.00;22.87;;;3.00;64.20;;;;;;4888579;29;20242;-69
2024/01/30 04:28:54;;;;;;;38.83;21.67;;;2.90;64.60;;;;;;4879726;29;20230;-68
2024/01/30 04:31:22;;;;;;;40.47;21.97;;;3.00;64.80;;;;;;4882177;29;20281;-68
2024/01/30 04:33:51;;;;;;;41.40;22.53;;;3.00;64.00;;;;;;4884000;29;20244;-68
2024/01/30 04:36:20;;;;;;;44.90;23.23;;;3.00;64.10;;;;;;4881943;29;20259;-69
2024/01/30 04:38:50;;;;;;;38.20;22.23;;;3.00;64.00;;;;;;4881100;29;20281;-69
2024/01/30 04:41:18;;;;;;;39.50;21.57;;;3.10;65.10;;;;;;4875702;29;20222;-69
2024/01/30 04:43:47;;;;;;;40.10;22.90;;;3.00;63.80;;;;;;4873560;29;20266;-71
2024/01/30 04:46:15;;;;;;;43.70;22.30;;;3.00;64.10;;;;;;4884141;29;20245;-69
2024/01/30 04:48:45;;;;;;;40.60;22.90;;;3.00;63.90;;;;;;4862435;29;20510;-69
2024/01/30 04:51:15;;;;;;;39.87;22.03;;;3.00;64.50;;;;;;4866664;29;20230;-69
2024/01/30 04:53:44;;;;;;;40.73;21.93;;;3.00;64.80;;;;;;4867201;29;20305;-69
2024/01/30 04:56:14;;;;;;;38.63;21.67;;;3.00;63.80;;;;;;4883382;29;20290;-69
2024/01/30 04:58:42;;;;;;;38.57;21.80;;;3.00;63.60;;;;;;4849761;29;20320;-69
2024/01/30 05:01:15;;;;;;;39.53;22.67;;;2.90;64.40;;;;;;4885292;29;20230;-68
2024/01/30 05:03:44;;;;;;;39.37;22.13;;;3.00;63.60;;;;;;4884301;29;20233;-69
2024/01/30 05:06:12;;;;;;;42.57;22.13;;;3.00;63.40;;;;;;4861824;29;20238;-69
2024/01/30 05:08:41;;;;;;;38.20;21.67;;;2.90;63.90;;;;;;4883877;29;20762;-69
2024/01/30 05:11:10;;;;;;;40.20;22.17;;;2.90;63.70;;;;;;4882314;29;20345;-69
2024/01/30 05:13:40;;;;;;;38.87;21.70;;;2.90;63.90;;;;;;4885664;29;20234;-68
2024/01/30 05:16:09;;;;;;;39.30;22.00;;;2.90;65.30;;;;;;4866887;29;20238;-70
2024/01/30 05:18:37;;;;;;;39.23;21.43;;;3.00;64.00;;;;;;4884755;29;20231;-68
2024/01/30 05:21:07;;;;;;;39.50;22.57;;;2.90;63.70;;;;;;4860142;29;20765;-69
2024/01/30 05:23:36;;;;;;;41.17;22.97;;;3.00;63.80;;;;;;4884417;29;20225;-69
2024/01/30 05:26:04;;;;;;;42.33;21.60;;;3.00;63.30;;;;;;4883213;29;20229;-69
2024/01/30 05:28:33;;;;;;;40.23;21.17;;;3.00;63.60;;;;;;4879408;29;20273;-70
2024/01/30 05:31:03;;;;;;;40.00;21.43;;;3.00;63.20;;;;;;4880368;29;20312;-69
2024/01/30 05:33:32;;;;;;;39.47;21.70;;;3.00;63.10;;;;;;4883254;29;20218;-69
2024/01/30 05:36:00;;;;;;;44.73;23.20;;;3.10;62.40;;;;;;4884604;29;20290;-68
2024/01/30 05:38:30;;;;;;;37.70;21.47;;;3.00;63.40;;;;;;4883438;29;20237;-68
2024/01/30 05:40:58;;;;;;;42.73;22.63;;;3.00;63.70;;;;;;4884352;29;20230;-68
2024/01/30 05:43:27;;;;;;;41.87;21.80;;;3.00;63.40;;;;;;4882920;29;20230;-69
2024/01/30 05:45:55;;;;;;;37.80;21.77;;;3.00;63.00;;;;;;4865542;29;20252;-68
2024/01/30 05:48:26;;;;;;;41.53;23.47;;;2.90;64.10;;;;;;4885469;29;20243;-67
2024/01/30 05:50:57;;;;;;;41.70;22.47;;;2.90;63.90;;;;;;4851273;29;20231;-67
2024/01/30 05:53:26;;;;;;;38.60;21.97;;;2.90;63.60;;;;;;4881471;29;20234;-66
2024/01/30 05:55:54;;;;;;;38.53;22.20;;;2.90;63.80;;;;;;4881525;29;20286;-68
2024/01/30 05:58:23;;;;;;;38.33;22.23;;;3.00;63.50;;;;;;4884033;29;20312;-68
2024/01/30 06:00:53;;;;;;;41.23;22.83;;;3.00;63.30;;;;;;4879408;29;20225;-69
2024/01/30 06:03:22;;;;;;;40.37;22.00;;;2.90;63.90;;;;;;4881708;29;20226;-68
2024/01/30 06:05:53;;;;;;;36.60;21.53;;;2.90;64.30;;;;;;4882190;29;20282;-69
2024/01/30 06:08:21;;;;;;;40.03;22.43;;;3.00;76.50;;;;;;4881311;29;20230;-68
2024/01/30 06:10:50;;;;;;;39.30;21.60;;;2.90;63.90;;;;;;4868056;29;20605;-69
2024/01/30 06:13:18;;;;;;;43.37;23.13;;;3.00;63.10;;;;;;4874237;29;20265;-69
2024/01/30 06:15:46;;;;;;;43.47;22.60;;;2.90;63.30;;;;;;4880407;29;20242;-72
2024/01/30 06:18:15;;;;;;;37.77;22.10;;;3.00;63.90;;;;;;4884370;29;20819;-69
2024/01/30 06:20:44;;;;;;;39.03;21.67;;;3.00;63.90;;;;;;4877539;29;20215;-68
2024/01/30 06:23:14;;;;;;;38.27;21.03;;;3.00;64.30;;;;;;4872009;29;20240;-69
2024/01/30 06:25:42;;;;;;;41.10;22.87;;;3.10;62.70;;;;;;4884851;29;20238;-69
2024/01/30 06:28:13;;;;;;;40.60;21.83;;;3.00;63.40;;;;;;4888116;29;20230;-68
2024/01/30 06:30:43;;;;;;;40.60;21.90;;;2.90;63.40;;;;;;4888470;29;20222;-67
2024/01/30 06:33:13;;;;;;;37.40;21.37;;;2.90;63.70;;;;;;4886460;29;20260;-67
2024/01/30 06:35:42;;;;;;;41.43;21.50;;;2.80;65.40;;;;;;4872714;29;20270;-69
2024/01/30 06:38:15;;;;;;;39.03;21.47;;;2.90;63.40;;;;;;4882257;29;20229;-70
2024/01/30 06:40:43;;;;;;;39.63;22.23;;;3.00;63.00;;;;;;4881205;29;20302;-70
2024/01/30 06:43:12;;;;;;;39.13;22.27;;;3.00;62.90;;;;;;4883368;29;20241;-69
2024/01/30 06:45:41;;;;;;;43.10;22.40;;;3.00;62.80;;;;;;4885322;29;20238;-69
2024/01/30 06:48:09;;;;;;;39.93;21.80;;;3.00;63.80;;;;;;4886146;29;20236;-70
2024/01/30 06:50:38;;;;;;;39.57;22.10;;;3.00;63.10;;;;;;4888799;29;20436;-71
2024/01/30 06:53:06;;;;;;;37.07;21.33;;;2.90;63.50;;;;;;4878704;29;20888;-70
2024/01/30 06:55:36;;;;;;;38.87;21.67;;;2.90;64.60;;;;;;4887999;29;20226;-70
2024/01/30 06:58:05;;;;;;;40.77;21.47;;;2.90;63.80;;;;;;4868990;29;20253;-71
2024/01/30 07:00:34;;;;;;;38.00;21.43;;;3.00;63.40;;;;;;4881432;29;20804;-72
2024/01/30 07:03:02;;;;;;;38.10;20.77;;;3.00;63.30;;;;;;4883179;29;20246;-70
2024/01/30 07:05:31;;;;;;;39.83;22.27;;;3.00;64.00;;;;;;4868111;29;20589;-69
2024/01/30 07:08:00;;;;;;;41.67;22.93;;;3.00;63.30;;;;;;4877990;29;20248;-67
2024/01/30 07:10:29;;;;;;;41.27;22.10;;;3.00;64.50;;;;;;4877210;29;20278;-66
2024/01/30 07:13:04;;;;;;;38.30;21.67;;;2.90;64.40;;;;;;4882138;29;20265;-69
2024/01/30 07:15:38;;;;;;;40.57;22.70;;;3.00;64.00;;;;;;4869988;29;20233;-66
2024/01/30 07:18:07;;;;;;;45.87;22.93;;;3.10;63.60;;;;;;4881363;29;20909;-68
2024/01/30 07:20:36;;;;;;;45.57;22.23;;;3.10;62.80;;;;;;4872671;29;20226;-68
2024/01/30 07:23:05;;;;;;;40.90;21.77;;;3.10;62.90;;;;;;4887802;29;20695;-68
2024/01/30 07:25:36;;;;;;;40.97;22.73;;;3.10;63.00;;;;;;4877686;29;20769;-68
2024/01/30 07:28:06;;;;;;;37.40;21.93;;;3.00;63.40;;;;;;4886611;29;20774;-67
2024/01/30 07:30:35;;;;;;;39.20;22.67;;;3.10;63.90;;;;;;4861539;29;20314;-67
2024/01/30 07:33:03;;;;;;;38.10;22.40;;;3.10;63.30;;;;;;4870161;29;20246;-67
2024/01/30 07:35:35;;;;;;;44.23;23.53;;;3.20;63.50;;;;;;4886814;29;20222;-68
2024/01/30 07:38:04;;;;;;;43.17;22.50;;;3.20;63.40;;;;;;4883791;29;20712;-68
2024/01/30 07:40:33;;;;;;;42.13;21.80;;;3.30;63.70;;;;;;4861694;29;20262;-68
2024/01/30 07:43:03;;;;;;;40.27;21.87;;;3.30;62.40;;;;;;4882379;29;20226;-69
2024/01/30 07:45:33;;;;;;;45.00;22.13;;;3.40;62.90;;;;;;4878271;29;20811;-68
2024/01/30 07:48:02;;;;;;;42.77;22.97;;;3.40;63.00;;;;;;4877442;29;20781;-68
2024/01/30 07:50:30;;;;;;;43.80;21.93;;;3.60;62.60;;;;;;4884755;29;20259;-67
2024/01/30 07:53:01;;;;;;;44.03;22.53;;;3.70;61.90;;;;;;4885706;29;20234;-68
2024/01/30 07:55:31;;;;;;;41.90;21.43;;;3.70;61.90;;;;;;4881291;29;20239;-68
2024/01/30 07:58:00;;;;;;;39.37;21.60;;;3.70;62.70;;;;;;4870601;29;20231;-68
2024/01/30 08:00:33;;;;;;;42.93;21.13;;;3.70;62.20;;;;;;4883104;29;20324;-67
2024/01/30 08:03:02;;;;;;;42.80;21.10;;;3.80;61.50;;;;;;4877097;29;20677;-68
2024/01/30 08:05:30;;;;;;;39.43;20.97;;;3.80;61.50;;;;;;4882842;29;20230;-67
2024/01/30 08:08:02;;;;;;;37.70;20.37;;;3.90;61.40;;;;;;4886034;29;20625;-68
2024/01/30 08:10:30;;;;;;;38.63;21.70;;;3.90;61.10;;;;;;4885113;29;20329;-68
2024/01/30 08:13:00;;;;;;;40.80;21.50;;;3.90;61.40;;;;;;4885415;29;20349;-68
2024/01/30 08:15:28;;;;;;;37.27;20.63;;;4.00;60.50;;;;;;4883313;29;20404;-65
2024/01/30 08:17:58;;;;;;;37.43;20.60;;;4.10;61.00;;;;;;4857468;29;20227;-67
2024/01/30 08:20:27;;;;;;;39.97;20.93;;;4.10;60.90;;;;;;4864406;29;20221;-67
2024/01/30 08:22:56;;;;;;;36.40;20.27;;;4.10;60.90;;;;;;4888809;29;20234;-67
2024/01/30 08:25:24;;;;;;;37.93;21.13;;;4.20;59.90;;;;;;4853952;29;20249;-67
2024/01/30 08:27:53;;;;;;;44.13;20.87;;;4.20;60.60;;;;;;4871052;29;20230;-67
2024/01/30 08:30:21;;;;;;;38.80;19.77;;;4.30;60.00;;;;;;4879232;29;20426;-66
2024/01/30 08:32:50;;;;;;;37.73;20.90;;;4.30;59.70;;;;;;4873438;29;20604;-67
2024/01/30 08:35:20;;;;;;;40.27;20.47;;;4.40;59.80;;;;;;4882710;29;20843;-67
2024/01/30 08:37:49;;;;;;;35.23;18.73;;;4.40;59.70;;;;;;4863743;29;20503;-69
2024/01/30 08:40:17;;;;;;;34.17;19.73;;;4.40;59.00;;;;;;4882051;29;20282;-70
2024/01/30 08:42:46;;;;;;;31.57;18.30;;;4.50;59.60;;;;;;4881501;29;20227;-70
2024/01/30 08:45:15;;;;;;;38.40;20.60;;;4.50;60.00;;;;;;4866953;29;20226;-69
2024/01/30 08:47:43;;;;;;;43.23;19.47;;;4.50;59.50;;;;;;4880583;29;20226;-68
2024/01/30 08:50:12;;;;;;;34.47;19.17;;;4.60;59.80;;;;;;4874539;29;20795;-69
2024/01/30 08:52:43;;;;;;;39.67;19.27;;;4.60;59.40;;;;;;4875270;29;20233;-67
2024/01/30 08:55:14;;;;;;;35.47;19.27;;;4.70;60.00;;;;;;4870975;29;20581;-67
2024/01/30 08:57:43;;;;;;;38.80;19.50;;;4.80;59.40;;;;;;4882007;29;20249;-66
2024/01/30 09:00:13;;;;;;;36.30;18.47;;;4.80;58.60;;;;;;4878368;29;20241;-68
2024/01/30 09:02:41;;;;;;;38.47;19.20;;;4.80;59.10;;;;;;4886569;29;20784;-68
2024/01/30 09:05:11;;;;;;;34.20;18.47;;;4.90;58.90;;;;;;4881657;29;20234;-68
2024/01/30 09:07:39;;;;;;;32.67;18.83;;;4.90;59.40;;;;;;4881924;29;20316;-69
2024/01/30 09:10:10;;;;;;;33.63;18.40;;;4.90;59.40;;;;;;4877773;29;20978;-68
2024/01/30 09:12:42;;;;;;;37.23;18.97;;;5.00;59.20;;;;;;4883177;29;20234;-68
2024/01/30 09:15:11;;;;;;;35.07;19.40;;;5.00;72.00;;;;;;4863974;29;20234;-68
2024/01/30 09:17:40;;;;;;;37.20;18.43;;;5.10;58.90;;;;;;4864858;29;20313;-67
2024/01/30 09:20:10;;;;;;;31.37;18.40;;;5.20;58.80;;;;;;4878362;29;20251;-67
2024/01/30 09:22:39;;;;;;;34.37;18.30;;;5.30;59.40;;;;;;4880962;29;20218;-68
2024/01/30 09:25:10;;;;;;;33.77;16.70;;;5.30;58.60;;;;;;4882451;29;20354;-68
2024/01/30 09:27:38;;;;;;;37.43;17.40;;;5.40;58.30;;;;;;4852904;29;20264;-67
2024/01/30 09:30:08;;;;;;;31.57;16.57;;;5.50;58.10;;;;;;4893965;29;20325;-68
2024/01/30 09:32:37;;;;;;;30.13;17.00;;;5.60;57.80;;;;;;4877426;29;20230;-66
2024/01/30 09:35:06;;;;;;;31.30;15.80;;;5.70;57.60;;;;;;4861617;29;20222;-68
2024/01/30 09:37:36;;;;;;;29.30;15.57;;;5.70;57.20;;;;;;4879617;29;20697;-67
2024/01/30 09:40:05;;;;;;;30.20;16.73;;;5.70;57.30;;;;;;4875836;29;20226;-67
2024/01/30 09:42:37;;;;;;;31.10;16.50;;;5.80;57.30;;;;;;4881642;29;20811;-67
2024/01/30 09:45:07;;;;;;;29.73;15.00;;;5.80;57.60;;;;;;4865402;29;20230;-68
2024/01/30 09:47:40;;;;;;;30.60;16.90;;;5.90;57.30;;;;;;4885304;29;20324;-70
2024/01/30 09:50:13;;;;;;;27.03;15.57;;;5.90;57.10;;;;;;4892333;29;20233;-68
2024/01/30 09:52:44;;;;;;;26.50;15.00;;;6.00;57.60;;;;;;4883434;29;20244;-69
2024/01/30 09:55:12;;;;;;;24.60;14.43;;;6.10;57.50;;;;;;4882307;29;20254;-69
2024/01/30 09:57:43;;;;;;;30.10;15.30;;;6.10;57.00;;;;;;4882602;29;20225;-69
2024/01/30 10:00:13;;;;;;;29.97;15.10;;;6.20;57.10;;;;;;4884933;29;20238;-70
2024/01/30 10:02:42;;;;;;;33.07;14.93;;;6.30;57.10;;;;;;4883384;29;20933;-69
2024/01/30 10:05:11;;;;;;;24.57;14.43;;;6.30;56.70;;;;;;4884018;29;20238;-68
2024/01/30 10:07:39;;;;;;;29.97;15.07;;;6.40;57.60;;;;;;4878084;29;20219;-66
2024/01/30 10:10:08;;;;;;;24.80;14.47;;;6.40;57.30;;;;;;4902180;29;20348;-67
2024/01/30 10:12:40;;;;;;;30.10;14.47;;;6.40;57.50;;;;;;4886858;29;20337;-67
2024/01/30 10:15:10;;;;;;;28.20;14.87;;;6.40;57.50;;;;;;4876692;29;20229;-67
2024/01/30 10:17:39;;;;;;;23.53;13.07;;;6.40;57.40;;;;;;4882750;29;20229;-68
2024/01/30 10:20:09;;;;;;;25.67;15.10;;;6.40;58.00;;;;;;4885327;29;20242;-68
2024/01/30 10:22:38;;;;;;;31.37;15.47;;;6.50;58.20;;;;;;4879735;29;20223;-67
2024/01/30 10:25:08;;;;;;;27.87;14.97;;;6.60;57.90;;;;;;4885828;29;20241;-67
2024/01/30 10:27:37;;;;;;;29.50;15.67;;;6.70;58.10;;;;;;4884440;29;20284;-68
2024/01/30 10:30:07;;;;;;;27.37;14.93;;;6.70;58.20;;;;;;4871814;29;20798;-69
2024/01/30 10:32:37;;;;;;;25.60;15.20;;;6.70;57.90;;;;;;4888500;29;20222;-67
2024/01/30 10:35:08;;;;;;;26.83;15.00;;;6.70;57.90;;;;;;4867412;29;20230;-69
2024/01/30 10:37:37;;;;;;;27.90;14.83;;;6.70;58.20;;;;;;4885393;29;20237;-68
2024/01/30 10:40:10;;;;;;;27.37;14.87;;;6.80;58.70;;;;;;4885040;29;20226;-67
2024/01/30 10:42:43;;;;;;;26.90;15.10;;;6.80;59.00;;;;;;4884949;29;20286;-66
2024/01/30 10:45:13;;;;;;;22.67;14.77;;;6.80;58.60;;;;;;4863153;29;20302;-66
2024/01/30 10:47:50;;;;;;;26.70;15.10;;;6.90;59.00;;;;;;4881762;29;20230;-67
2024/01/30 10:50:20;;;;;;;28.00;15.40;;;6.90;59.90;;;;;;4879164;29;20794;-66
2024/01/30 10:52:50;;;;;;;25.70;14.33;;;7.00;58.90;;;;;;4877725;29;20237;-67
2024/01/30 10:55:20;;;;;;;26.87;15.00;;;7.00;59.10;;;;;;4868586;29;20360;-67
2024/01/30 10:57:49;;;;;;;28.43;15.40;;;7.10;59.10;;;;;;4858150;29;20238;-67
2024/01/30 11:00:24;;;;;;;24.70;14.23;;;7.10;59.30;;;;;;4873004;29;20347;-71
2024/01/30 11:02:54;;;;;;;28.90;15.30;;;7.10;60.90;;;;;;4879368;29;20236;-67
2024/01/30 11:05:26;;;;;;;28.27;14.80;;;7.10;60.80;;;;;;4882378;29;20226;-67
2024/01/30 11:08:10;;;;;;;27.87;15.07;;;7.20;60.40;;;;;;4880341;29;20319;-68
2024/01/30 11:10:47;;;;;;;25.93;14.77;;;7.20;60.40;;;;;;4883514;29;20265;-68
2024/01/30 11:13:16;;;;;;;30.97;14.53;;;7.20;60.20;;;;;;4837051;29;20241;-68
2024/01/30 11:15:45;;;;;;;28.63;14.97;;;7.20;60.80;;;;;;4879072;29;20364;-68
2024/01/30 11:18:24;;;;;;;25.93;14.57;;;7.20;60.70;;;;;;4880920;29;20233;-70
2024/01/30 11:20:53;;;;;;;24.20;14.10;;;7.30;61.20;;;;;;4880036;29;20402;-67
2024/01/30 11:23:24;;;;;;;23.30;13.83;;;7.30;61.00;;;;;;4874184;29;20903;-68
2024/01/30 11:25:54;;;;;;;25.57;14.23;;;7.30;61.20;;;;;;4881399;29;20296;-69
2024/01/30 11:28:23;;;;;;;26.77;14.80;;;7.40;61.00;;;;;;4865278;29;20243;-70
2024/01/30 11:30:52;;;;;;;27.13;14.40;;;7.40;61.60;;;;;;4881579;29;20281;-68
2024/01/30 11:33:30;;;;;;;24.10;14.53;;;7.50;61.30;;;;;;4876709;29;20233;-68
2024/01/30 11:36:02;;;;;;;27.10;14.73;;;7.50;60.70;;;;;;4862661;29;20815;-69
2024/01/30 11:38:31;;;;;;;25.70;13.90;;;7.50;61.10;;;;;;4880165;29;20616;-67
2024/01/30 11:41:02;;;;;;;27.13;14.83;;;7.60;60.70;;;;;;4873389;29;20230;-68
2024/01/30 11:43:30;;;;;;;27.00;15.40;;;7.60;61.50;;;;;;4861200;29;20222;-68
2024/01/30 11:46:00;;;;;;;27.93;14.83;;;7.60;61.30;;;;;;4877046;29;20222;-70
2024/01/30 11:48:30;;;;;;;26.90;14.53;;;7.60;62.10;;;;;;4879334;29;20240;-69
2024/01/30 11:50:58;;;;;;;26.73;14.10;;;7.70;61.70;;;;;;4866483;29;20230;-69
2024/01/30 11:53:28;;;;;;;24.43;14.10;;;7.70;63.40;;;;;;4879623;29;20226;-68
2024/01/30 11:55:57;;;;;;;29.87;14.47;;;7.80;62.50;;;;;;4880752;29;20315;-69
2024/01/30 11:58:26;;;;;;;26.33;14.53;;;7.90;62.70;;;;;;4883373;29;20230;-69
2024/01/30 12:00:56;;;;;;;28.37;14.80;;;7.90;62.10;;;;;;4882966;29;20810;-68
2024/01/30 12:03:25;;;;;;;27.87;13.57;;;8.00;62.00;;;;;;4881597;29;20313;-71
2024/01/30 12:05:59;;;;;;;29.97;14.80;;;8.00;62.20;;;;;;4869411;29;20240;-69
2024/01/30 12:08:28;;;;;;;27.17;14.13;;;8.00;75.90;;;;;;4860451;29;20285;-70
2024/01/30 12:10:58;;;;;;;26.40;14.50;;;8.00;62.90;;;;;;4878677;29;20324;-70
2024/01/30 12:13:29;;;;;;;25.67;15.10;;;8.00;62.10;;;;;;4869354;29;20574;-70
2024/01/30 12:16:01;;;;;;;25.77;14.33;;;8.00;62.70;;;;;;4883559;29;20756;-69
2024/01/30 12:18:30;;;;;;;26.90;14.60;;;8.00;62.80;;;;;;4865648;29;20325;-69
2024/01/30 12:21:01;;;;;;;20.97;13.73;;;8.10;63.00;;;;;;4875535;29;20237;-68
2024/01/30 12:23:30;;;;;;;26.23;14.20;;;8.00;63.00;;;;;;4862509;29;20232;-68
2024/01/30 12:25:59;;;;;;;24.20;14.37;;;8.10;63.90;;;;;;4875664;29;20257;-69
2024/01/30 12:28:31;;;;;;;24.67;14.63;;;8.10;63.80;;;;;;4877240;29;20341;-69
2024/01/30 12:31:02;;;;;;;22.97;13.90;;;8.00;64.00;;;;;;4875038;29;20314;-68
2024/01/30 12:33:32;;;;;;;22.93;13.80;;;8.00;63.60;;;;;;4863881;29;20314;-70
2024/01/30 12:36:05;;;;;;;22.77;13.47;;;8.10;65.90;;;;;;4866138;29;20269;-69
2024/01/30 12:38:34;;;;;;;23.57;13.70;;;8.10;63.70;;;;;;4880151;29;20230;-67
2024/01/30 12:41:02;;;;;;;25.53;15.10;;;8.10;64.10;;;;;;4877965;29;20225;-70
2024/01/30 12:43:32;;;;;;;24.27;15.00;;;8.20;65.00;;;;;;4877048;29;20281;-69
2024/01/30 12:46:07;;;;;;;22.90;13.70;;;8.20;65.00;;;;;;4874302;29;20322;-68